createdAt,value
2018-07-17T00:00:25.147Z,1007.77
2018-07-17T00:01:25.172Z,1007.78
2018-07-17T00:02:25.195Z,1007.81
2018-07-17T00:03:25.221Z,1007.80
2018-07-17T00:04:25.246Z,1007.82
2018-07-17T00:05:25.269Z,1007.80
2018-07-17T00:06:25.295Z,1007.79
2018-07-17T00:07:25.320Z,1007.80
2018-07-17T00:08:25.348Z,1007.80
2018-07-17T00:09:25.373Z,1007.74
2018-07-17T00:10:25.396Z,1007.76
2018-07-17T00:11:25.419Z,1007.75
2018-07-17T00:12:25.447Z,1007.71
2018-07-17T00:13:25.470Z,1007.70
2018-07-17T00:14:25.494Z,1007.71
2018-07-17T00:15:25.517Z,1007.73
2018-07-17T00:16:25.550Z,1007.74
2018-07-17T00:17:25.568Z,1007.73
2018-07-17T00:18:25.595Z,1007.77
2018-07-17T00:19:25.618Z,1007.76
2018-07-17T00:20:25.644Z,1007.79
2018-07-17T00:21:25.667Z,1007.76
2018-07-17T00:22:25.690Z,1007.72
2018-07-17T00:23:25.717Z,1007.72
2018-07-17T00:24:25.740Z,1007.74
2018-07-17T00:25:25.767Z,1007.73
2018-07-17T00:26:25.794Z,1007.72
2018-07-17T00:27:25.817Z,1007.75
2018-07-17T00:28:25.841Z,1007.74
2018-07-17T00:29:25.866Z,1007.73
2018-07-17T00:30:25.887Z,1007.75
2018-07-17T00:31:25.912Z,1007.70
2018-07-17T00:32:25.940Z,1007.70
2018-07-17T00:33:25.961Z,1007.77
2018-07-17T00:34:25.989Z,1007.76
2018-07-17T00:35:26.010Z,1007.72
2018-07-17T00:36:26.035Z,1007.74
2018-07-17T00:37:26.062Z,1007.72
2018-07-17T00:38:26.088Z,1007.71
2018-07-17T00:39:26.116Z,1007.71
2018-07-17T00:40:26.137Z,1007.70
2018-07-17T00:41:26.160Z,1007.69
2018-07-17T00:42:26.184Z,1007.67
2018-07-17T00:43:26.207Z,1007.68
2018-07-17T00:44:26.236Z,1007.72
2018-07-17T00:45:26.257Z,1007.66
2018-07-17T00:46:26.280Z,1007.69
2018-07-17T00:47:26.306Z,1007.66
2018-07-17T00:48:26.332Z,1007.65
2018-07-17T00:49:26.354Z,1007.64
2018-07-17T00:50:26.378Z,1007.64
2018-07-17T00:51:26.405Z,1007.64
2018-07-17T00:52:26.430Z,1007.62
2018-07-17T00:53:26.453Z,1007.61
2018-07-17T00:54:26.475Z,1007.63
2018-07-17T00:55:26.503Z,1007.59
2018-07-17T00:56:26.529Z,1007.60
2018-07-17T00:57:26.551Z,1007.53
2018-07-17T00:58:26.574Z,1007.51
2018-07-17T00:59:26.602Z,1007.56
2018-07-17T01:00:26.626Z,1007.54
2018-07-17T01:01:26.648Z,1007.54
2018-07-17T01:02:26.672Z,1007.59
2018-07-17T01:03:26.697Z,1007.57
2018-07-17T01:04:26.721Z,1007.55
2018-07-17T01:05:26.748Z,1007.55
2018-07-17T01:06:26.769Z,1007.56
2018-07-17T01:07:26.795Z,1007.50
2018-07-17T01:08:26.820Z,1007.47
2018-07-17T01:09:26.842Z,1007.52
2018-07-17T01:10:26.870Z,1007.48
2018-07-17T01:11:26.894Z,1007.44
2018-07-17T01:12:26.916Z,1007.49
2018-07-17T01:13:26.943Z,1007.44
2018-07-17T01:14:26.967Z,1007.46
2018-07-17T01:15:26.988Z,1007.47
2018-07-17T01:16:27.016Z,1007.51
2018-07-17T01:17:27.039Z,1007.44
2018-07-17T01:18:27.065Z,1007.46
2018-07-17T01:19:27.085Z,1007.47
2018-07-17T01:20:27.113Z,1007.44
2018-07-17T01:21:27.136Z,1007.44
2018-07-17T01:22:27.161Z,1007.48
2018-07-17T01:23:27.187Z,1007.45
2018-07-17T01:24:27.211Z,1007.43
2018-07-17T01:25:27.235Z,1007.47
2018-07-17T01:26:27.259Z,1007.49
2018-07-17T01:27:27.283Z,1007.45
2018-07-17T01:28:27.306Z,1007.48
2018-07-17T01:29:27.332Z,1007.52
2018-07-17T01:30:27.355Z,1007.48
2018-07-17T01:31:27.380Z,1007.45
2018-07-17T01:32:27.404Z,1007.43
2018-07-17T01:33:27.430Z,1007.44
2018-07-17T01:34:27.449Z,1007.42
2018-07-17T01:35:27.477Z,1007.41
2018-07-17T01:36:27.502Z,1007.43
2018-07-17T01:37:27.524Z,1007.41
2018-07-17T01:38:27.601Z,1007.38
2018-07-17T01:39:27.573Z,1007.37
2018-07-17T01:40:27.596Z,1007.35
2018-07-17T01:41:27.618Z,1007.38
2018-07-17T01:42:27.644Z,1007.37
2018-07-17T01:43:27.666Z,1007.31
2018-07-17T01:44:27.691Z,1007.32
2018-07-17T01:45:27.714Z,1007.27
2018-07-17T01:46:27.740Z,1007.29
2018-07-17T01:47:27.763Z,1007.27
2018-07-17T01:48:27.787Z,1007.28
2018-07-17T01:49:27.810Z,1007.22
2018-07-17T01:50:27.838Z,1007.23
2018-07-17T01:51:27.861Z,1007.23
2018-07-17T01:52:27.882Z,1007.25
2018-07-17T01:53:27.906Z,1007.23
2018-07-17T01:54:27.934Z,1007.23
2018-07-17T01:55:27.956Z,1007.23
2018-07-17T01:56:27.980Z,1007.26
2018-07-17T01:57:28.009Z,1007.21
2018-07-17T01:58:28.027Z,1007.25
2018-07-17T01:59:28.054Z,1007.27
2018-07-17T02:00:28.076Z,1007.26
2018-07-17T02:01:28.100Z,1007.27
2018-07-17T02:02:28.125Z,1007.26
2018-07-17T02:03:28.155Z,1007.22
2018-07-17T02:04:28.199Z,1007.24
2018-07-17T02:05:28.198Z,1007.18
2018-07-17T02:06:28.221Z,1007.20
2018-07-17T02:07:28.246Z,1007.19
2018-07-17T02:08:28.268Z,1007.19
2018-07-17T02:09:28.290Z,1007.17
2018-07-17T02:10:28.315Z,1007.18
2018-07-17T02:11:28.339Z,1007.17
2018-07-17T02:12:28.363Z,1007.14
2018-07-17T02:13:28.389Z,1007.16
2018-07-17T02:14:28.410Z,1007.18
2018-07-17T02:15:28.435Z,1007.18
2018-07-17T02:16:28.462Z,1007.19
2018-07-17T02:17:28.484Z,1007.16
2018-07-17T02:18:28.507Z,1007.15
2018-07-17T02:19:28.530Z,1007.16
2018-07-17T02:20:28.557Z,1007.14
2018-07-17T02:21:28.578Z,1007.14
2018-07-17T02:22:28.606Z,1007.16
2018-07-17T02:23:28.629Z,1007.14
2018-07-17T02:24:28.653Z,1007.19
2018-07-17T02:25:28.677Z,1007.20
2018-07-17T02:26:28.702Z,1007.20
2018-07-17T02:27:28.724Z,1007.16
2018-07-17T02:28:28.748Z,1007.18
2018-07-17T02:29:28.770Z,1007.15
2018-07-17T02:30:28.795Z,1007.11
2018-07-17T02:31:28.821Z,1007.15
2018-07-17T02:32:28.844Z,1007.23
2018-07-17T02:33:28.865Z,1007.20
2018-07-17T02:34:28.892Z,1007.22
2018-07-17T02:35:28.913Z,1007.22
2018-07-17T02:36:28.938Z,1007.27
2018-07-17T02:37:28.964Z,1007.23
2018-07-17T02:38:28.985Z,1007.27
2018-07-17T02:39:29.011Z,1007.29
2018-07-17T02:40:29.033Z,1007.25
2018-07-17T02:41:29.059Z,1007.25
2018-07-17T02:42:29.162Z,1007.24
2018-07-17T02:43:29.112Z,1007.26
2018-07-17T02:44:29.129Z,1007.28
2018-07-17T02:45:29.151Z,1007.24
2018-07-17T02:46:29.176Z,1007.27
2018-07-17T02:47:29.204Z,1007.25
2018-07-17T02:48:29.226Z,1007.25
2018-07-17T02:49:29.251Z,1007.22
2018-07-17T02:50:29.274Z,1007.25
2018-07-17T02:51:29.338Z,1007.23
2018-07-17T02:52:29.319Z,1007.19
2018-07-17T02:53:29.342Z,1007.21
2018-07-17T02:54:29.370Z,1007.22
2018-07-17T02:55:29.487Z,1007.19
2018-07-17T02:56:29.415Z,1007.23
2018-07-17T02:57:29.437Z,1007.28
2018-07-17T02:58:29.525Z,1007.26
2018-07-17T02:59:29.538Z,1007.27
2018-07-17T03:00:29.511Z,1007.32
2018-07-17T03:01:29.532Z,1007.31
2018-07-17T03:02:29.557Z,1007.29
2018-07-17T03:03:29.596Z,1007.26
2018-07-17T03:04:29.605Z,1007.30
2018-07-17T03:05:29.632Z,1007.28
2018-07-17T03:06:29.655Z,1007.29
2018-07-17T03:07:29.677Z,1007.27
2018-07-17T03:08:29.701Z,1007.31
2018-07-17T03:09:29.725Z,1007.29
2018-07-17T03:10:29.746Z,1007.27
2018-07-17T03:11:29.774Z,1007.32
2018-07-17T03:12:29.798Z,1007.29
2018-07-17T03:13:29.817Z,1007.29
2018-07-17T03:14:29.841Z,1007.32
2018-07-17T03:15:29.867Z,1007.33
2018-07-17T03:16:29.892Z,1007.35
2018-07-17T03:17:29.915Z,1007.34
2018-07-17T03:18:29.935Z,1007.31
2018-07-17T03:19:29.959Z,1007.32
2018-07-17T03:20:29.987Z,1007.27
2018-07-17T03:21:30.007Z,1007.28
2018-07-17T03:22:30.033Z,1007.26
2018-07-17T03:23:30.054Z,1007.26
2018-07-17T03:24:30.120Z,1007.24
2018-07-17T03:25:30.102Z,1007.27
2018-07-17T03:26:30.127Z,1007.30
2018-07-17T03:27:30.150Z,1007.28
2018-07-17T03:28:30.180Z,1007.28
2018-07-17T03:29:30.195Z,1007.30
2018-07-17T03:30:30.224Z,1007.32
2018-07-17T03:31:30.247Z,1007.32
2018-07-17T03:32:30.270Z,1007.33
2018-07-17T03:33:30.293Z,1007.32
2018-07-17T03:34:30.314Z,1007.30
2018-07-17T03:35:30.347Z,1007.37
2018-07-17T03:36:30.401Z,1007.31
2018-07-17T03:37:30.385Z,1007.30
2018-07-17T03:38:30.411Z,1007.32
2018-07-17T03:39:30.438Z,1007.31
2018-07-17T03:40:30.458Z,1007.36
2018-07-17T03:41:30.482Z,1007.34
2018-07-17T03:42:30.505Z,1007.34
2018-07-17T03:43:30.529Z,1007.34
2018-07-17T03:44:30.550Z,1007.34
2018-07-17T03:45:30.576Z,1007.36
2018-07-17T03:46:30.603Z,1007.40
2018-07-17T03:47:30.621Z,1007.39
2018-07-17T03:48:30.647Z,1007.38
2018-07-17T03:49:30.670Z,1007.40
2018-07-17T03:50:30.693Z,1007.38
2018-07-17T03:51:30.715Z,1007.39
2018-07-17T03:52:30.738Z,1007.40
2018-07-17T03:53:30.764Z,1007.41
2018-07-17T03:54:30.785Z,1007.39
2018-07-17T03:55:30.810Z,1007.40
2018-07-17T03:56:30.835Z,1007.43
2018-07-17T03:57:30.855Z,1007.37
2018-07-17T03:58:30.881Z,1007.40
2018-07-17T03:59:30.902Z,1007.42
2018-07-17T04:00:30.928Z,1007.41
2018-07-17T04:01:30.951Z,1007.44
2018-07-17T04:02:30.975Z,1007.41
2018-07-17T04:03:30.998Z,1007.43
2018-07-17T04:04:31.022Z,1007.41
2018-07-17T04:05:31.044Z,1007.41
2018-07-17T04:06:31.069Z,1007.41
2018-07-17T04:07:31.091Z,1007.35
2018-07-17T04:08:31.112Z,1007.37
2018-07-17T04:09:31.140Z,1007.39
2018-07-17T04:10:31.162Z,1007.37
2018-07-17T04:11:31.182Z,1007.34
2018-07-17T04:12:31.206Z,1007.36
2018-07-17T04:13:31.358Z,1007.37
2018-07-17T04:14:31.256Z,1007.42
2018-07-17T04:15:31.276Z,1007.39
2018-07-17T04:16:31.302Z,1007.39
2018-07-17T04:17:31.324Z,1007.39
2018-07-17T04:18:31.346Z,1007.37
2018-07-17T04:19:31.374Z,1007.37
2018-07-17T04:20:31.396Z,1007.37
2018-07-17T04:21:31.418Z,1007.37
2018-07-17T04:22:31.439Z,1007.41
2018-07-17T04:23:31.467Z,1007.41
2018-07-17T04:24:31.492Z,1007.42
2018-07-17T04:25:31.508Z,1007.45
2018-07-17T04:26:31.533Z,1007.41
2018-07-17T04:27:31.559Z,1007.42
2018-07-17T04:28:31.582Z,1007.44
2018-07-17T04:29:31.604Z,1007.43
2018-07-17T04:30:31.629Z,1007.41
2018-07-17T04:31:31.681Z,1007.42
2018-07-17T04:32:31.673Z,1007.45
2018-07-17T04:33:31.696Z,1007.42
2018-07-17T04:34:31.722Z,1007.49
2018-07-17T04:35:31.744Z,1007.46
2018-07-17T04:36:31.767Z,1007.51
2018-07-17T04:37:31.830Z,1007.52
2018-07-17T04:38:31.992Z,1007.51
2018-07-17T04:39:31.836Z,1007.47
2018-07-17T04:40:31.862Z,1007.52
2018-07-17T04:41:31.884Z,1007.54
2018-07-17T04:42:31.907Z,1007.50
2018-07-17T04:43:31.933Z,1007.52
2018-07-17T04:44:31.956Z,1007.48
2018-07-17T04:45:31.978Z,1007.46
2018-07-17T04:46:32.003Z,1007.48
2018-07-17T04:47:32.024Z,1007.46
2018-07-17T04:48:32.049Z,1007.51
2018-07-17T04:49:32.069Z,1007.48
2018-07-17T04:50:32.094Z,1007.55
2018-07-17T04:51:32.117Z,1007.54
2018-07-17T04:52:32.141Z,1007.54
2018-07-17T04:53:32.167Z,1007.54
2018-07-17T04:54:32.190Z,1007.54
2018-07-17T04:55:32.211Z,1007.53
2018-07-17T04:56:32.237Z,1007.52
2018-07-17T04:57:32.261Z,1007.55
2018-07-17T04:58:32.285Z,1007.58
2018-07-17T04:59:32.307Z,1007.59
2018-07-17T05:00:32.333Z,1007.63
2018-07-17T05:01:32.360Z,1007.67
2018-07-17T05:02:32.378Z,1007.66
2018-07-17T05:03:32.399Z,1007.67
2018-07-17T05:04:32.422Z,1007.68
2018-07-17T05:05:32.449Z,1007.67
2018-07-17T05:06:32.469Z,1007.66
2018-07-17T05:07:32.495Z,1007.69
2018-07-17T05:08:32.520Z,1007.67
2018-07-17T05:09:32.540Z,1007.67
2018-07-17T05:10:32.564Z,1007.71
2018-07-17T05:11:32.588Z,1007.67
2018-07-17T05:12:32.612Z,1007.69
2018-07-17T05:13:32.638Z,1007.68
2018-07-17T05:14:32.662Z,1007.68
2018-07-17T05:15:32.685Z,1007.68
2018-07-17T05:16:32.741Z,1007.66
2018-07-17T05:17:32.775Z,1007.69
2018-07-17T05:18:32.756Z,1007.70
2018-07-17T05:19:32.781Z,1007.64
2018-07-17T05:20:32.804Z,1007.67
2018-07-17T05:21:32.827Z,1007.68
2018-07-17T05:22:32.848Z,1007.72
2018-07-17T05:23:32.876Z,1007.70
2018-07-17T05:24:32.896Z,1007.69
2018-07-17T05:25:32.922Z,1007.72
2018-07-17T05:26:32.949Z,1007.68
2018-07-17T05:27:32.969Z,1007.69
2018-07-17T05:28:32.991Z,1007.64
2018-07-17T05:29:33.018Z,1007.66
2018-07-17T05:30:33.043Z,1007.64
2018-07-17T05:31:33.066Z,1007.63
2018-07-17T05:32:33.090Z,1007.63
2018-07-17T05:33:33.112Z,1007.60
2018-07-17T05:34:33.138Z,1007.66
2018-07-17T05:35:33.213Z,1007.60
2018-07-17T05:36:33.191Z,1007.67
2018-07-17T05:37:33.210Z,1007.64
2018-07-17T05:38:33.231Z,1007.66
2018-07-17T05:39:33.254Z,1007.65
2018-07-17T05:40:33.284Z,1007.67
2018-07-17T05:41:33.306Z,1007.68
2018-07-17T05:42:33.328Z,1007.66
2018-07-17T05:43:33.354Z,1007.70
2018-07-17T05:44:33.379Z,1007.73
2018-07-17T05:45:33.401Z,1007.72
2018-07-17T05:46:33.429Z,1007.70
2018-07-17T05:47:33.448Z,1007.72
2018-07-17T05:48:33.475Z,1007.72
2018-07-17T05:49:33.496Z,1007.73
2018-07-17T05:50:33.524Z,1007.76
2018-07-17T05:51:33.546Z,1007.77
2018-07-17T05:52:33.572Z,1007.77
2018-07-17T05:53:33.597Z,1007.77
2018-07-17T05:54:33.625Z,1007.78
2018-07-17T05:55:33.646Z,1007.79
2018-07-17T05:56:33.671Z,1007.79
2018-07-17T05:57:33.696Z,1007.73
2018-07-17T05:58:33.720Z,1007.78
2018-07-17T05:59:33.743Z,1007.78
2018-07-17T06:00:33.770Z,1007.78
2018-07-17T06:01:33.793Z,1007.83
2018-07-17T06:02:33.822Z,1007.80
2018-07-17T06:03:33.844Z,1007.85
2018-07-17T06:04:33.873Z,1007.85
2018-07-17T06:05:33.898Z,1007.89
2018-07-17T06:06:33.921Z,1007.90
2018-07-17T06:07:33.946Z,1007.93
2018-07-17T06:08:33.974Z,1007.95
2018-07-17T06:09:34.000Z,1007.97
2018-07-17T06:10:34.032Z,1008.01
2018-07-17T06:11:34.051Z,1008.05
2018-07-17T06:12:34.087Z,1008.08
2018-07-17T06:13:34.105Z,1008.10
2018-07-17T06:14:34.131Z,1008.14
2018-07-17T06:15:34.159Z,1008.15
2018-07-17T06:16:34.184Z,1008.17
2018-07-17T06:17:34.211Z,1008.15
2018-07-17T06:18:34.236Z,1008.17
2018-07-17T06:19:34.265Z,1008.17
2018-07-17T06:20:34.294Z,1008.18
2018-07-17T06:21:34.319Z,1008.18
2018-07-17T06:22:34.347Z,1008.24
2018-07-17T06:23:34.375Z,1008.26
2018-07-17T06:24:34.399Z,1008.28
2018-07-17T06:25:34.426Z,1008.23
2018-07-17T06:26:34.455Z,1008.30
2018-07-17T06:27:34.483Z,1008.32
2018-07-17T06:28:34.508Z,1008.34
2018-07-17T06:29:34.541Z,1008.35
2018-07-17T06:30:34.562Z,1008.30
2018-07-17T06:31:34.593Z,1008.32
2018-07-17T06:32:34.618Z,1008.27
2018-07-17T06:33:34.645Z,1008.28
2018-07-17T06:34:34.674Z,1008.27
2018-07-17T06:35:34.704Z,1008.26
2018-07-17T06:36:34.731Z,1008.30
2018-07-17T06:37:34.861Z,1008.30
2018-07-17T06:38:34.787Z,1008.31
2018-07-17T06:39:34.817Z,1008.25
2018-07-17T06:40:34.844Z,1008.27
2018-07-17T06:41:34.869Z,1008.22
2018-07-17T06:42:34.969Z,1008.23
2018-07-17T06:43:34.929Z,1008.22
2018-07-17T06:44:34.976Z,1008.21
2018-07-17T06:45:34.983Z,1008.22
2018-07-17T06:46:35.012Z,1008.24
2018-07-17T06:47:35.043Z,1008.20
2018-07-17T06:48:35.111Z,1008.18
2018-07-17T06:49:35.098Z,1008.16
2018-07-17T06:50:35.314Z,1008.21
2018-07-17T06:51:35.155Z,1008.19
2018-07-17T06:52:35.183Z,1008.21
2018-07-17T06:53:35.211Z,1008.20
2018-07-17T06:54:35.237Z,1008.24
2018-07-17T06:55:35.267Z,1008.26
2018-07-17T06:56:35.345Z,1008.26
2018-07-17T06:57:35.323Z,1008.25
2018-07-17T06:58:35.350Z,1008.24
2018-07-17T06:59:35.375Z,1008.21
2018-07-17T07:00:35.407Z,1008.19
2018-07-17T07:01:35.433Z,1008.25
2018-07-17T07:02:35.461Z,1008.21
2018-07-17T07:03:35.489Z,1008.17
2018-07-17T07:04:35.514Z,1008.20
2018-07-17T07:05:35.541Z,1008.12
2018-07-17T07:06:35.569Z,1008.21
2018-07-17T07:07:35.599Z,1008.19
2018-07-17T07:08:35.627Z,1008.24
2018-07-17T07:09:35.651Z,1008.24
2018-07-17T07:10:35.682Z,1008.25
2018-07-17T07:11:35.707Z,1008.25
2018-07-17T07:12:35.735Z,1008.24
2018-07-17T07:13:35.762Z,1008.22
2018-07-17T07:14:35.792Z,1008.22
2018-07-17T07:15:35.820Z,1008.24
2018-07-17T07:16:35.845Z,1008.22
2018-07-17T07:17:35.875Z,1008.22
2018-07-17T07:18:35.924Z,1008.25
2018-07-17T07:19:36.036Z,1008.24
2018-07-17T07:20:35.961Z,1008.30
2018-07-17T07:21:36.088Z,1008.31
2018-07-17T07:22:36.017Z,1008.32
2018-07-17T07:23:36.048Z,1008.31
2018-07-17T07:24:36.138Z,1008.35
2018-07-17T07:25:36.107Z,1008.38
2018-07-17T07:26:36.129Z,1008.39
2018-07-17T07:27:36.158Z,1008.43
2018-07-17T07:28:36.489Z,1008.38
2018-07-17T07:29:36.276Z,1008.33
2018-07-17T07:30:36.247Z,1008.40
2018-07-17T07:31:36.273Z,1008.41
2018-07-17T07:32:36.311Z,1008.45
2018-07-17T07:33:36.344Z,1008.43
2018-07-17T07:34:36.361Z,1008.40
2018-07-17T07:35:36.389Z,1008.39
2018-07-17T07:36:36.421Z,1008.43
2018-07-17T07:37:36.449Z,1008.44
2018-07-17T07:38:36.479Z,1008.47
2018-07-17T07:39:36.507Z,1008.49
2018-07-17T07:40:36.543Z,1008.46
2018-07-17T07:41:36.567Z,1008.48
2018-07-17T07:42:36.598Z,1008.48
2018-07-17T07:43:36.626Z,1008.48
2018-07-17T07:44:36.657Z,1008.48
2018-07-17T07:45:36.684Z,1008.51
2018-07-17T07:46:36.715Z,1008.49
2018-07-17T07:47:36.742Z,1008.53
2018-07-17T07:48:36.772Z,1008.55
2018-07-17T07:49:36.806Z,1008.56
2018-07-17T07:50:36.833Z,1008.53
2018-07-17T07:51:36.862Z,1008.55
2018-07-17T07:52:36.892Z,1008.54
2018-07-17T07:53:36.923Z,1008.53
2018-07-17T07:54:36.951Z,1008.50
2018-07-17T07:55:37.042Z,1008.53
2018-07-17T07:56:37.008Z,1008.50
2018-07-17T07:57:37.392Z,1008.53
2018-07-17T07:58:37.098Z,1008.51
2018-07-17T07:59:37.097Z,1008.54
2018-07-17T08:00:37.130Z,1008.52
2018-07-17T08:01:37.158Z,1008.53
2018-07-17T08:02:37.185Z,1008.51
2018-07-17T08:03:37.227Z,1008.50
2018-07-17T08:04:37.262Z,1008.50
2018-07-17T08:05:37.276Z,1008.52
2018-07-17T08:06:37.328Z,1008.44
2018-07-17T08:07:37.333Z,1008.47
2018-07-17T08:08:37.365Z,1008.47
2018-07-17T08:09:37.546Z,1008.48
2018-07-17T08:10:37.421Z,1008.50
2018-07-17T08:11:37.458Z,1008.49
2018-07-17T08:12:37.479Z,1008.48
2018-07-17T08:13:37.511Z,1008.50
2018-07-17T08:14:37.539Z,1008.52
2018-07-17T08:15:37.569Z,1008.50
2018-07-17T08:16:37.599Z,1008.53
2018-07-17T08:17:37.623Z,1008.48
2018-07-17T08:18:37.706Z,1008.50
2018-07-17T08:19:37.684Z,1008.56
2018-07-17T08:20:37.713Z,1008.54
2018-07-17T08:21:37.746Z,1008.52
2018-07-17T08:22:37.774Z,1008.53
2018-07-17T08:23:37.800Z,1008.52
2018-07-17T08:24:37.831Z,1008.54
2018-07-17T08:25:37.859Z,1008.53
2018-07-17T08:26:38.088Z,1008.53
2018-07-17T08:27:37.918Z,1008.52
2018-07-17T08:28:37.945Z,1008.51
2018-07-17T08:29:37.997Z,1008.53
2018-07-17T08:30:38.006Z,1008.50
2018-07-17T08:31:38.035Z,1008.52
2018-07-17T08:32:38.063Z,1008.50
2018-07-17T08:33:38.095Z,1008.50
2018-07-17T08:34:38.117Z,1008.52
2018-07-17T08:35:38.152Z,1008.50
2018-07-17T08:36:38.178Z,1008.52
2018-07-17T08:37:38.211Z,1008.52
2018-07-17T08:38:38.235Z,1008.52
2018-07-17T08:39:38.266Z,1008.51
2018-07-17T08:40:38.297Z,1008.48
2018-07-17T08:41:38.323Z,1008.50
2018-07-17T08:42:38.350Z,1008.50
2018-07-17T08:43:38.564Z,1008.50
2018-07-17T08:44:38.413Z,1008.46
2018-07-17T08:45:38.438Z,1008.48
2018-07-17T08:46:38.468Z,1008.49
2018-07-17T08:47:38.495Z,1008.51
2018-07-17T08:48:38.528Z,1008.50
2018-07-17T08:49:38.553Z,1008.48
2018-07-17T08:50:38.584Z,1008.51
2018-07-17T08:51:38.614Z,1008.56
2018-07-17T08:52:38.644Z,1008.56
2018-07-17T08:53:38.673Z,1008.55
2018-07-17T08:54:38.829Z,1008.57
2018-07-17T08:55:38.731Z,1008.57
2018-07-17T08:56:38.812Z,1008.56
2018-07-17T08:57:38.788Z,1008.61
2018-07-17T08:58:38.818Z,1008.58
2018-07-17T08:59:38.847Z,1008.58
2018-07-17T09:00:38.879Z,1008.66
2018-07-17T09:01:38.904Z,1008.61
2018-07-17T09:02:38.936Z,1008.62
2018-07-17T09:03:38.967Z,1008.61
2018-07-17T09:04:38.995Z,1008.63
2018-07-17T09:05:39.025Z,1008.59
2018-07-17T09:06:39.056Z,1008.57
2018-07-17T09:07:39.088Z,1008.59
2018-07-17T09:08:39.114Z,1008.57
2018-07-17T09:09:39.143Z,1008.61
2018-07-17T09:10:39.173Z,1008.61
2018-07-17T09:11:39.208Z,1008.60
2018-07-17T09:12:39.230Z,1008.57
2018-07-17T09:13:39.260Z,1008.59
2018-07-17T09:14:39.288Z,1008.60
2018-07-17T09:15:39.317Z,1008.57
2018-07-17T09:16:39.346Z,1008.58
2018-07-17T09:17:39.374Z,1008.55
2018-07-17T09:18:39.406Z,1008.55
2018-07-17T09:19:39.437Z,1008.54
2018-07-17T09:20:39.466Z,1008.60
2018-07-17T09:21:39.545Z,1008.61
2018-07-17T09:22:39.521Z,1008.57
2018-07-17T09:23:39.550Z,1008.59
2018-07-17T09:25:39.608Z,1008.60
2018-07-17T09:26:39.642Z,1008.58
2018-07-17T09:27:40.021Z,1008.58
2018-07-17T09:28:39.701Z,1008.62
2018-07-17T09:29:39.727Z,1008.58
2018-07-17T09:30:39.761Z,1008.61
2018-07-17T09:31:39.785Z,1008.60
2018-07-17T09:32:39.817Z,1008.63
2018-07-17T09:33:39.907Z,1008.60
2018-07-17T09:34:39.874Z,1008.62
2018-07-17T09:35:39.904Z,1008.62
2018-07-17T09:36:39.933Z,1008.65
2018-07-17T09:37:39.958Z,1008.59
2018-07-17T09:38:39.987Z,1008.62
2018-07-17T09:39:40.021Z,1008.64
2018-07-17T09:40:40.047Z,1008.62
2018-07-17T09:41:40.077Z,1008.63
2018-07-17T09:42:40.107Z,1008.62
2018-07-17T09:43:40.134Z,1008.63
2018-07-17T09:44:40.169Z,1008.61
2018-07-17T09:45:40.192Z,1008.61
2018-07-17T09:46:40.219Z,1008.62
2018-07-17T09:47:40.283Z,1008.59
2018-07-17T09:48:40.280Z,1008.59
2018-07-17T09:49:40.308Z,1008.60
2018-07-17T09:50:40.338Z,1008.61
2018-07-17T09:51:40.364Z,1008.63
2018-07-17T09:52:40.396Z,1008.64
2018-07-17T09:53:40.421Z,1008.56
2018-07-17T09:54:40.453Z,1008.58
2018-07-17T09:55:40.482Z,1008.58
2018-07-17T09:56:40.513Z,1008.63
2018-07-17T09:57:40.538Z,1008.66
2018-07-17T09:58:40.624Z,1008.59
2018-07-17T09:59:40.598Z,1008.61
2018-07-17T10:00:40.626Z,1008.60
2018-07-17T10:01:40.657Z,1008.58
2018-07-17T10:02:40.683Z,1008.59
2018-07-17T10:03:40.714Z,1008.59
2018-07-17T10:04:40.780Z,1008.58
2018-07-17T10:05:40.771Z,1008.61
2018-07-17T10:06:40.802Z,1008.63
2018-07-17T10:07:40.830Z,1008.68
2018-07-17T10:08:40.860Z,1008.60
2018-07-17T10:09:40.890Z,1008.60
2018-07-17T10:10:40.917Z,1008.68
2018-07-17T10:11:40.949Z,1008.68
2018-07-17T10:12:40.978Z,1008.72
2018-07-17T10:13:41.007Z,1008.64
2018-07-17T10:14:41.232Z,1008.71
2018-07-17T10:15:41.069Z,1008.67
2018-07-17T10:16:41.099Z,1008.63
2018-07-17T10:17:41.134Z,1008.59
2018-07-17T10:18:41.163Z,1008.61
2018-07-17T10:19:41.188Z,1008.63
2018-07-17T10:20:41.231Z,1008.64
2018-07-17T10:21:41.250Z,1008.60
2018-07-17T10:22:41.286Z,1008.59
2018-07-17T10:23:41.309Z,1008.57
2018-07-17T10:24:41.336Z,1008.60
2018-07-17T10:25:41.364Z,1008.61
2018-07-17T10:26:41.460Z,1008.58
2018-07-17T10:27:41.526Z,1008.60
2018-07-17T10:28:41.457Z,1008.61
2018-07-17T10:29:41.484Z,1008.65
2018-07-17T10:30:41.515Z,1008.64
2018-07-17T10:31:41.551Z,1008.65
2018-07-17T10:32:41.577Z,1008.66
2018-07-17T10:33:41.609Z,1008.63
2018-07-17T10:34:41.640Z,1008.62
2018-07-17T10:35:41.669Z,1008.69
2018-07-17T10:36:41.706Z,1008.67
2018-07-17T10:37:41.725Z,1008.70
2018-07-17T10:38:41.772Z,1008.66
2018-07-17T10:39:41.790Z,1008.68
2018-07-17T10:40:41.816Z,1008.64
2018-07-17T10:41:41.846Z,1008.69
2018-07-17T10:42:41.877Z,1008.68
2018-07-17T10:43:41.912Z,1008.71
2018-07-17T10:44:41.938Z,1008.69
2018-07-17T10:45:41.966Z,1008.68
2018-07-17T10:46:41.998Z,1008.65
2018-07-17T10:47:42.142Z,1008.64
2018-07-17T10:48:42.132Z,1008.65
2018-07-17T10:49:42.087Z,1008.64
2018-07-17T10:50:42.120Z,1008.68
2018-07-17T10:51:42.148Z,1008.72
2018-07-17T10:52:42.180Z,1008.67
2018-07-17T10:53:42.230Z,1008.69
2018-07-17T10:54:42.237Z,1008.71
2018-07-17T10:55:42.270Z,1008.65
2018-07-17T10:56:42.297Z,1008.54
2018-07-17T10:57:42.326Z,1008.64
2018-07-17T10:58:42.362Z,1008.61
2018-07-17T10:59:42.388Z,1008.65
2018-07-17T11:00:42.419Z,1008.64
2018-07-17T11:01:42.444Z,1008.63
2018-07-17T11:02:42.476Z,1008.61
2018-07-17T11:03:42.506Z,1008.59
2018-07-17T11:04:42.535Z,1008.70
2018-07-17T11:05:42.573Z,1008.71
2018-07-17T11:06:42.592Z,1008.68
2018-07-17T11:07:42.622Z,1008.66
2018-07-17T11:08:42.654Z,1008.68
2018-07-17T11:09:42.683Z,1008.69
2018-07-17T11:10:42.709Z,1008.69
2018-07-17T11:11:42.860Z,1008.72
2018-07-17T11:12:42.771Z,1008.67
2018-07-17T11:13:42.797Z,1008.69
2018-07-17T11:14:42.829Z,1008.70
2018-07-17T11:15:42.859Z,1008.69
2018-07-17T11:16:42.888Z,1008.69
2018-07-17T11:17:42.914Z,1008.64
2018-07-17T11:18:42.947Z,1008.61
2018-07-17T11:19:42.976Z,1008.63
2018-07-17T11:20:43.007Z,1008.66
2018-07-17T11:21:43.033Z,1008.64
2018-07-17T11:22:43.064Z,1008.67
2018-07-17T11:23:43.093Z,1008.66
2018-07-17T11:24:43.126Z,1008.58
2018-07-17T11:25:43.155Z,1008.59
2018-07-17T11:26:43.185Z,1008.59
2018-07-17T11:27:43.218Z,1008.60
2018-07-17T11:28:43.243Z,1008.57
2018-07-17T11:29:43.273Z,1008.56
2018-07-17T11:30:43.304Z,1008.53
2018-07-17T11:31:43.334Z,1008.54
2018-07-17T11:32:43.369Z,1008.54
2018-07-17T11:33:43.394Z,1008.55
2018-07-17T11:34:43.421Z,1008.54
2018-07-17T11:35:43.453Z,1008.57
2018-07-17T11:36:43.482Z,1008.54
2018-07-17T11:37:43.513Z,1008.51
2018-07-17T11:38:43.580Z,1008.52
2018-07-17T11:39:43.575Z,1008.55
2018-07-17T11:40:43.600Z,1008.57
2018-07-17T11:41:43.631Z,1008.52
2018-07-17T11:42:43.661Z,1008.56
2018-07-17T11:43:43.690Z,1008.49
2018-07-17T11:44:43.727Z,1008.53
2018-07-17T11:45:43.752Z,1008.47
2018-07-17T11:46:43.778Z,1008.46
2018-07-17T11:47:43.855Z,1008.45
2018-07-17T11:48:43.842Z,1008.47
2018-07-17T11:49:43.868Z,1008.52
2018-07-17T11:50:43.908Z,1008.56
2018-07-17T11:51:43.929Z,1008.54
2018-07-17T11:52:43.958Z,1008.51
2018-07-17T11:53:43.987Z,1008.49
2018-07-17T11:54:44.014Z,1008.47
2018-07-17T11:55:44.047Z,1008.47
2018-07-17T11:56:44.076Z,1008.48
2018-07-17T11:57:44.106Z,1008.46
2018-07-17T11:58:44.131Z,1008.47
2018-07-17T11:59:44.166Z,1008.45
2018-07-17T12:00:44.194Z,1008.47
2018-07-17T12:01:44.224Z,1008.47
2018-07-17T12:02:44.252Z,1008.42
2018-07-17T12:03:44.283Z,1008.51
2018-07-17T12:04:44.309Z,1008.44
2018-07-17T12:05:44.348Z,1008.44
2018-07-17T12:06:44.369Z,1008.45